Terminal Aerodrome Forecast
Issued by NWS El Paso, TX

Home | Current Version | Previous Version | Text Only | Print | Product List | Glossary On
Versions: 1 2 3 4 5 6 7 8 9 10 11 12
000
FTUS44 KEPZ 291700
TAFELP
TAF
KELP 291733Z 2918/3018 27005KT P6SM FEW120 FEW250
     FM300300 VRB04KT P6SM SKC
     FM301400 06014KT P6SM FEW030 SCT140
     FM301700 09013KT P6SM SCT050 SCT250=

USA.gov is the U.S. government's official web portal to all federal, state and local government web resources and services.